Wetterdaten: aktuell Freitag, 06.12.2019 05:15
Datum Zeit Temp. A. Luft Gew. Boden Gew. Boden A. Feuchte A. Luftdruck Regen Wind Richtung Richtung Sonnenschein ET UV Solar Taupunkt Windchill Windben Empfang
06.12.2019 05:15 -0.6 C -0.6 C 6.1 C 5.6 C 96 % 1024.5 hPa 0.0 l/m 5.6 km/h (1 Bft) SW 221 0 min 0.000 mm 0.0 UV-I 0 W/m -1.2 C -0.6 C 9.7 km/h (2 Bft) 100.00 %
06.12.2019 04:15 -0.4 C -0.6 C 6.1 C 5.6 C 96 % 1024.6 hPa 0.0 l/m 6.8 km/h (2 Bft) SW 229 0 min 0.000 mm 0.0 UV-I 0 W/m -1.0 C -0.8 C 11.3 km/h (2 Bft) 99.15 %
06.12.2019 03:15 -0.5 C -0.6 C 6.1 C 5.6 C 96 % 1024.9 hPa 0.0 l/m 5.0 km/h (1 Bft) W-SW 241 0 min 0.000 mm 0.0 UV-I 0 W/m -1.1 C -0.5 C 8.0 km/h (2 Bft) 99.15 %
06.12.2019 02:15 -0.6 C -0.6 C 6.1 C 5.6 C 96 % 1024.9 hPa 0.0 l/m 8.4 km/h (2 Bft) SW 235 0 min 0.000 mm 0.0 UV-I 0 W/m -1.2 C -2.7 C 17.7 km/h (3 Bft) 100.00 %
06.12.2019 01:15 -0.4 C -0.6 C 6.1 C 5.6 C 96 % 1025.3 hPa 0.0 l/m 6.0 km/h (2 Bft) SW 226 0 min 0.000 mm 0.0 UV-I 0 W/m -1.0 C -0.4 C 9.7 km/h (2 Bft) 100.00 %
06.12.2019 00:15 -0.5 C -0.6 C 6.1 C 5.6 C 96 % 1025.7 hPa 0.0 l/m 5.6 km/h (1 Bft) S-SW 209 0 min 0.000 mm 0.0 UV-I 0 W/m -1.1 C -0.5 C 11.3 km/h (2 Bft) 94.87 %
05.12.2019 23:15 -0.7 C -1.1 C 6.1 C 5.6 C 96 % 1026.0 hPa 0.0 l/m 6.3 km/h (2 Bft) W-SW 238 0 min 0.000 mm 0.0 UV-I 0 W/m -1.3 C -0.7 C 11.3 km/h (2 Bft) 97.44 %
05.12.2019 22:15 -0.8 C -1.1 C 6.1 C 5.6 C 96 % 1026.3 hPa 0.0 l/m 9.4 km/h (2 Bft) SW 220 0 min 0.000 mm 0.0 UV-I 0 W/m -1.4 C -3.8 C 16.1 km/h (3 Bft) 97.44 %
05.12.2019 21:15 -1.0 C -1.1 C 6.1 C 5.6 C 96 % 1026.6 hPa 0.0 l/m 5.3 km/h (1 Bft) SW 221 0 min 0.000 mm 0.0 UV-I 0 W/m -1.6 C -1.0 C 11.3 km/h (2 Bft) 100.00 %
05.12.2019 20:15 -1.0 C -1.1 C 6.1 C 5.6 C 96 % 1026.8 hPa 0.0 l/m 4.4 km/h (1 Bft) SW 232 0 min 0.000 mm 0.0 UV-I 0 W/m -1.6 C -1.0 C 8.0 km/h (2 Bft) 100.00 %
05.12.2019 19:15 -1.1 C -0.6 C 6.1 C 5.6 C 96 % 1026.8 hPa 0.0 l/m 5.1 km/h (1 Bft) S-SW 206 0 min 0.000 mm 0.0 UV-I 0 W/m -1.7 C -1.1 C 9.7 km/h (2 Bft) 99.15 %
05.12.2019 18:15 -1.1 C -0.6 C 6.1 C 5.6 C 96 % 1026.6 hPa 0.0 l/m 6.8 km/h (2 Bft) SW 214 0 min 0.000 mm 0.0 UV-I 0 W/m -1.7 C -1.5 C 11.3 km/h (2 Bft) 96.58 %
05.12.2019 17:15 -1.1 C 0.0 C 6.1 C 5.6 C 96 % 1026.5 hPa 0.0 l/m 5.3 km/h (1 Bft) SW 222 0 min 0.000 mm 0.0 UV-I 0 W/m -1.7 C -1.1 C 8.0 km/h (2 Bft) 95.73 %
05.12.2019 16:15 -1.1 C 1.1 C 6.1 C 5.6 C 95 % 1026.3 hPa 0.0 l/m 1.5 km/h (1 Bft) SW 231 0 min 0.000 mm 0.0 UV-I 0 W/m -1.8 C -1.1 C 4.8 km/h (1 Bft) 96.58 %
05.12.2019 15:15 -0.9 C 1.7 C 6.1 C 5.6 C 96 % 1025.8 hPa 0.0 l/m 4.5 km/h (1 Bft) W-SW 242 0 min 0.025 mm 0.0 UV-I 25 W/m -1.5 C -0.9 C 6.4 km/h (2 Bft) 100.00 %
05.12.2019 14:15 -0.8 C 1.7 C 6.1 C 5.6 C 96 % 1025.8 hPa 0.0 l/m 1.5 km/h (1 Bft) SW 225 0 min 0.001 mm 0.0 UV-I 40 W/m -1.4 C -0.8 C 4.8 km/h (1 Bft) 100.00 %
05.12.2019 13:15 -0.8 C 1.7 C 6.1 C 5.6 C 96 % 1026.1 hPa 0.0 l/m 1.2 km/h (1 Bft) SW 214 0 min 0.025 mm 0.0 UV-I 60 W/m -1.4 C -0.8 C 8.0 km/h (2 Bft) 100.00 %
05.12.2019 12:15 -0.9 C 1.1 C 6.1 C 5.6 C 96 % 1026.2 hPa 0.0 l/m 4.9 km/h (1 Bft) W-SW 252 0 min 0.026 mm 0.0 UV-I 56 W/m -1.5 C -0.9 C 8.0 km/h (2 Bft) 96.58 %
05.12.2019 11:15 -1.4 C 0.0 C 6.1 C 5.6 C 96 % 1026.6 hPa 0.0 l/m 5.1 km/h (1 Bft) S-SW 207 0 min 0.025 mm 0.0 UV-I 58 W/m -2.0 C -1.4 C 9.7 km/h (2 Bft) 97.44 %
05.12.2019 10:15 -1.7 C -1.1 C 6.1 C 5.6 C 96 % 1026.7 hPa 0.0 l/m 4.7 km/h (1 Bft) S-SW 211 0 min 0.000 mm 0.0 UV-I 55 W/m -2.3 C -1.7 C 11.3 km/h (2 Bft) 100.00 %
05.12.2019 09:15 -1.9 C -1.7 C 6.1 C 5.6 C 96 % 1026.3 hPa 0.0 l/m 4.7 km/h (1 Bft) S-SW 200 0 min 0.000 mm 0.0 UV-I 22 W/m -2.5 C -1.9 C 8.0 km/h (2 Bft) 98.29 %
05.12.2019 08:15 -1.9 C -2.2 C 6.1 C 5.6 C 96 % 1026.0 hPa 0.0 l/m 4.3 km/h (1 Bft) W-SW 244 0 min 0.000 mm 0.0 UV-I 5 W/m -2.5 C -1.9 C 9.7 km/h (2 Bft) 99.15 %
05.12.2019 07:15 -1.9 C -2.2 C 6.1 C 5.6 C 96 % 1025.9 hPa 0.0 l/m 5.2 km/h (1 Bft) SW 232 0 min 0.000 mm 0.0 UV-I 0 W/m -2.5 C -1.9 C 12.9 km/h (3 Bft) 100.00 %
05.12.2019 06:15 -1.8 C -2.2 C 6.1 C 5.6 C 96 % 1025.3 hPa 0.0 l/m 6.8 km/h (2 Bft) S-SW 207 0 min 0.000 mm 0.0 UV-I 0 W/m -2.4 C -2.2 C 11.3 km/h (2 Bft) 97.44 %
05.12.2019 06:00 -1.8 C -2.2 C 6.1 C 5.6 C 96 % 1025.2 hPa 0.0 l/m 4.2 km/h (1 Bft) SW 227 0 min 0.000 mm 0.0 UV-I 0 W/m -2.4 C -1.8 C 8.0 km/h (2 Bft) 97.44 %
_ Min-Zeit 06:45 06:00 06:00 06:00 15:25 04:40 - 13:10 - - - - - - 06:45 22:45 11:25 16:45
Minimum _ -2.0 C -2.2 C 6.1 C 5.6 C 95 % 1024.4 hPa - 0.9 km/h (0 Bft) - - - - - - -2.6 C -3.9 C 3.2 km/h (1 Bft) 79.21 %
_ Max-Zeit 00:25 13:00 06:00 06:00 06:00 19:30 06:00 22:45 - - 06:00 12:00 06:00 10:55 00:30 01:20 02:15 07:00
Maximum _ -0.4 C 1.7 C 6.1 C 5.6 C 96 % 1027.0 hPa 0.0 l/m 9.6 km/h
W-SW (2 Bft)
- - 0 min 0.026 mm 0.0 UV-I 78 W/m -1.0 C -0.4 C 17.7 km/h
SW (3 Bft)
100.00 %
Durchschnitt _ -1.1 C -0.6 C 6.1 C 5.6 C 96 % 1025.9 hPa #0.0 l/m 5.1 km/h (1 Bft) SW - #0 min. #0.000 mm 0.0 UV-I 0 W/m -1.6 C -1.3 C 9.3 km/h (2 Bft) 98.07 %